sensor_id;sensor_type;location;lat;lon;timestamp;temperature;humidity
53695;DHT22;39588;51.124;7.190;2023-06-10T00:04:15;20.10;83.80
53695;DHT22;39588;51.124;7.190;2023-06-10T00:06:43;20.10;83.80
53695;DHT22;39588;51.124;7.190;2023-06-10T00:09:09;20.00;84.20
53695;DHT22;39588;51.124;7.190;2023-06-10T00:11:40;20.00;84.20
53695;DHT22;39588;51.124;7.190;2023-06-10T00:14:06;20.00;84.70
53695;DHT22;39588;51.124;7.190;2023-06-10T00:16:32;20.00;84.90
53695;DHT22;39588;51.124;7.190;2023-06-10T00:19:00;20.00;85.00
53695;DHT22;39588;51.124;7.190;2023-06-10T00:21:33;19.90;85.60
53695;DHT22;39588;51.124;7.190;2023-06-10T00:24:06;19.90;85.80
53695;DHT22;39588;51.124;7.190;2023-06-10T00:26:32;19.90;85.90
53695;DHT22;39588;51.124;7.190;2023-06-10T00:28:58;19.90;86.10
53695;DHT22;39588;51.124;7.190;2023-06-10T00:31:24;19.90;86.30
53695;DHT22;39588;51.124;7.190;2023-06-10T00:36:17;19.80;87.00
53695;DHT22;39588;51.124;7.190;2023-06-10T00:41:09;19.80;87.20
53695;DHT22;39588;51.124;7.190;2023-06-10T00:43:35;19.80;87.50
53695;DHT22;39588;51.124;7.190;2023-06-10T00:46:00;19.80;87.70
53695;DHT22;39588;51.124;7.190;2023-06-10T00:48:27;19.80;87.90
53695;DHT22;39588;51.124;7.190;2023-06-10T00:50:53;19.80;88.30
53695;DHT22;39588;51.124;7.190;2023-06-10T00:53:19;19.70;88.30
53695;DHT22;39588;51.124;7.190;2023-06-10T00:58:12;19.70;88.80
53695;DHT22;39588;51.124;7.190;2023-06-10T01:00:38;19.70;89.00
53695;DHT22;39588;51.124;7.190;2023-06-10T01:05:36;19.70;89.60
53695;DHT22;39588;51.124;7.190;2023-06-10T01:11:00;19.60;89.80
53695;DHT22;39588;51.124;7.190;2023-06-10T01:13:26;19.60;90.10
53695;DHT22;39588;51.124;7.190;2023-06-10T01:15:55;19.60;90.10
53695;DHT22;39588;51.124;7.190;2023-06-10T01:18:21;19.60;90.20
53695;DHT22;39588;51.124;7.190;2023-06-10T01:20:47;19.60;90.30
53695;DHT22;39588;51.124;7.190;2023-06-10T01:23:14;19.50;90.20
53695;DHT22;39588;51.124;7.190;2023-06-10T01:25:42;19.50;90.40
53695;DHT22;39588;51.124;7.190;2023-06-10T01:33:25;19.40;90.50
53695;DHT22;39588;51.124;7.190;2023-06-10T01:35:53;19.40;90.40
53695;DHT22;39588;51.124;7.190;2023-06-10T01:38:19;19.40;90.50
53695;DHT22;39588;51.124;7.190;2023-06-10T01:40:47;19.40;90.40
53695;DHT22;39588;51.124;7.190;2023-06-10T01:45:39;19.40;90.30
53695;DHT22;39588;51.124;7.190;2023-06-10T01:48:05;19.40;90.30
53695;DHT22;39588;51.124;7.190;2023-06-10T01:50:31;19.40;90.30
53695;DHT22;39588;51.124;7.190;2023-06-10T01:52:58;19.40;90.40
53695;DHT22;39588;51.124;7.190;2023-06-10T01:55:23;19.30;90.40
53695;DHT22;39588;51.124;7.190;2023-06-10T01:57:49;19.30;90.40
53695;DHT22;39588;51.124;7.190;2023-06-10T02:00:15;19.30;90.40
53695;DHT22;39588;51.124;7.190;2023-06-10T02:02:41;19.30;90.30
53695;DHT22;39588;51.124;7.190;2023-06-10T02:05:06;19.30;90.30
53695;DHT22;39588;51.124;7.190;2023-06-10T02:12:24;19.20;90.30
53695;DHT22;39588;51.124;7.190;2023-06-10T02:14:50;19.20;90.20
53695;DHT22;39588;51.124;7.190;2023-06-10T02:17:16;19.20;90.10
53695;DHT22;39588;51.124;7.190;2023-06-10T02:22:09;19.10;90.10
53695;DHT22;39588;51.124;7.190;2023-06-10T02:24:36;19.10;90.10
53695;DHT22;39588;51.124;7.190;2023-06-10T02:34:21;19.00;90.00
53695;DHT22;39588;51.124;7.190;2023-06-10T02:39:16;19.00;90.00
53695;DHT22;39588;51.124;7.190;2023-06-10T02:44:08;19.00;89.90
53695;DHT22;39588;51.124;7.190;2023-06-10T02:49:01;18.90;89.90
53695;DHT22;39588;51.124;7.190;2023-06-10T02:51:27;18.90;89.90
53695;DHT22;39588;51.124;7.190;2023-06-10T02:53:52;18.80;89.70
53695;DHT22;39588;51.124;7.190;2023-06-10T02:56:18;18.80;89.60
53695;DHT22;39588;51.124;7.190;2023-06-10T02:58:44;18.80;89.10
53695;DHT22;39588;51.124;7.190;2023-06-10T03:13:23;18.80;88.10
53695;DHT22;39588;51.124;7.190;2023-06-10T03:18:15;18.70;87.90
53695;DHT22;39588;51.124;7.190;2023-06-10T03:20:41;18.70;88.10
53695;DHT22;39588;51.124;7.190;2023-06-10T03:23:07;18.70;87.60
53695;DHT22;39588;51.124;7.190;2023-06-10T03:25:33;18.70;87.30
53695;DHT22;39588;51.124;7.190;2023-06-10T03:27:59;18.20;87.20
53695;DHT22;39588;51.124;7.190;2023-06-10T03:30:24;18.70;86.80
53695;DHT22;39588;51.124;7.190;2023-06-10T03:32:50;18.70;87.30
53695;DHT22;39588;51.124;7.190;2023-06-10T03:35:16;18.70;87.30
53695;DHT22;39588;51.124;7.190;2023-06-10T03:37:42;18.70;87.60
53695;DHT22;39588;51.124;7.190;2023-06-10T03:40:08;18.70;86.30
53695;DHT22;39588;51.124;7.190;2023-06-10T03:42:34;18.70;87.00
53695;DHT22;39588;51.124;7.190;2023-06-10T03:45:00;18.70;87.10
53695;DHT22;39588;51.124;7.190;2023-06-10T03:47:26;18.70;86.20
53695;DHT22;39588;51.124;7.190;2023-06-10T03:49:52;18.70;86.90
53695;DHT22;39588;51.124;7.190;2023-06-10T03:52:18;18.70;86.00
53695;DHT22;39588;51.124;7.190;2023-06-10T03:54:44;18.70;86.10
53695;DHT22;39588;51.124;7.190;2023-06-10T03:59:35;18.80;85.00
53695;DHT22;39588;51.124;7.190;2023-06-10T04:02:01;18.80;85.20
53695;DHT22;39588;51.124;7.190;2023-06-10T04:04:27;18.80;85.60
53695;DHT22;39588;51.124;7.190;2023-06-10T04:06:52;18.80;85.30
53695;DHT22;39588;51.124;7.190;2023-06-10T04:09:18;18.80;85.10
53695;DHT22;39588;51.124;7.190;2023-06-10T04:11:44;18.90;85.20
53695;DHT22;39588;51.124;7.190;2023-06-10T04:14:09;18.90;84.60
53695;DHT22;39588;51.124;7.190;2023-06-10T04:16:35;18.90;84.50
53695;DHT22;39588;51.124;7.190;2023-06-10T04:19:01;19.00;84.60
53695;DHT22;39588;51.124;7.190;2023-06-10T04:21:27;19.00;83.90
53695;DHT22;39588;51.124;7.190;2023-06-10T04:23:53;19.00;84.20
53695;DHT22;39588;51.124;7.190;2023-06-10T04:26:19;19.00;84.40
53695;DHT22;39588;51.124;7.190;2023-06-10T04:31:10;19.10;83.60
53695;DHT22;39588;51.124;7.190;2023-06-10T04:33:36;19.10;83.90
53695;DHT22;39588;51.124;7.190;2023-06-10T04:36:02;19.20;84.00
53695;DHT22;39588;51.124;7.190;2023-06-10T04:38:28;19.20;83.70
53695;DHT22;39588;51.124;7.190;2023-06-10T04:40:53;19.30;83.40
53695;DHT22;39588;51.124;7.190;2023-06-10T04:48:11;19.70;82.60
53695;DHT22;39588;51.124;7.190;2023-06-10T04:53:04;19.80;82.70
53695;DHT22;39588;51.124;7.190;2023-06-10T04:55:31;19.80;82.40
53695;DHT22;39588;51.124;7.190;2023-06-10T04:57:57;19.80;82.10
53695;DHT22;39588;51.124;7.190;2023-06-10T05:00:22;19.90;83.00
53695;DHT22;39588;51.124;7.190;2023-06-10T05:02:48;20.10;82.00
53695;DHT22;39588;51.124;7.190;2023-06-10T05:05:16;20.10;82.30
53695;DHT22;39588;51.124;7.190;2023-06-10T05:07:42;20.30;82.80
53695;DHT22;39588;51.124;7.190;2023-06-10T05:15:00;20.60;83.00
53695;DHT22;39588;51.124;7.190;2023-06-10T05:17:25;20.70;82.50
53695;DHT22;39588;51.124;7.190;2023-06-10T05:19:51;20.80;81.20
53695;DHT22;39588;51.124;7.190;2023-06-10T05:27:10;21.10;81.60
53695;DHT22;39588;51.124;7.190;2023-06-10T05:34:31;21.40;82.10
53695;DHT22;39588;51.124;7.190;2023-06-10T05:36:57;21.60;82.10
53695;DHT22;39588;51.124;7.190;2023-06-10T05:39:23;21.70;82.00
53695;DHT22;39588;51.124;7.190;2023-06-10T05:46:40;22.10;80.20
53695;DHT22;39588;51.124;7.190;2023-06-10T05:49:06;22.20;80.80
53695;DHT22;39588;51.124;7.190;2023-06-10T05:51:32;22.30;79.90
53695;DHT22;39588;51.124;7.190;2023-06-10T05:53:57;22.40;80.90
53695;DHT22;39588;51.124;7.190;2023-06-10T05:56:23;22.50;79.60
53695;DHT22;39588;51.124;7.190;2023-06-10T05:58:49;22.60;80.30
53695;DHT22;39588;51.124;7.190;2023-06-10T06:01:15;22.80;79.70
53695;DHT22;39588;51.124;7.190;2023-06-10T06:03:41;22.90;80.50
53695;DHT22;39588;51.124;7.190;2023-06-10T06:06:06;22.90;79.20
53695;DHT22;39588;51.124;7.190;2023-06-10T06:08:32;23.00;79.30
53695;DHT22;39588;51.124;7.190;2023-06-10T06:10:58;23.00;80.40
53695;DHT22;39588;51.124;7.190;2023-06-10T06:15:50;23.40;79.30
53695;DHT22;39588;51.124;7.190;2023-06-10T06:20:43;23.70;78.20
53695;DHT22;39588;51.124;7.190;2023-06-10T06:23:09;23.70;77.00
53695;DHT22;39588;51.124;7.190;2023-06-10T06:28:06;23.90;77.30
53695;DHT22;39588;51.124;7.190;2023-06-10T06:40:16;24.70;76.10
53695;DHT22;39588;51.124;7.190;2023-06-10T06:42:42;24.60;76.00
53695;DHT22;39588;51.124;7.190;2023-06-10T06:45:08;24.70;77.90
53695;DHT22;39588;51.124;7.190;2023-06-10T06:47:33;24.70;77.40
53695;DHT22;39588;51.124;7.190;2023-06-10T06:49:59;24.70;77.90
53695;DHT22;39588;51.124;7.190;2023-06-10T06:52:25;24.80;76.60
53695;DHT22;39588;51.124;7.190;2023-06-10T06:54:50;24.80;76.40
53695;DHT22;39588;51.124;7.190;2023-06-10T06:57:16;24.90;75.70
53695;DHT22;39588;51.124;7.190;2023-06-10T06:59:42;24.90;74.60
53695;DHT22;39588;51.124;7.190;2023-06-10T07:02:07;25.00;74.70
53695;DHT22;39588;51.124;7.190;2023-06-10T07:04:33;24.90;74.60
53695;DHT22;39588;51.124;7.190;2023-06-10T07:06:58;24.90;78.00
53695;DHT22;39588;51.124;7.190;2023-06-10T07:09:24;25.10;77.40
53695;DHT22;39588;51.124;7.190;2023-06-10T07:11:50;25.40;77.90
53695;DHT22;39588;51.124;7.190;2023-06-10T07:14:15;25.60;75.80
53695;DHT22;39588;51.124;7.190;2023-06-10T07:16:41;25.70;75.30
53695;DHT22;39588;51.124;7.190;2023-06-10T07:19:06;25.80;77.50
53695;DHT22;39588;51.124;7.190;2023-06-10T07:21:33;25.90;76.10
53695;DHT22;39588;51.124;7.190;2023-06-10T07:23:59;25.90;73.20
53695;DHT22;39588;51.124;7.190;2023-06-10T07:26:25;26.00;73.50
53695;DHT22;39588;51.124;7.190;2023-06-10T07:28:51;26.00;73.10
53695;DHT22;39588;51.124;7.190;2023-06-10T07:31:17;26.10;75.00
53695;DHT22;39588;51.124;7.190;2023-06-10T07:33:42;26.20;73.80
53695;DHT22;39588;51.124;7.190;2023-06-10T07:36:09;26.30;74.70
53695;DHT22;39588;51.124;7.190;2023-06-10T07:38:35;26.50;74.90
53695;DHT22;39588;51.124;7.190;2023-06-10T07:41:01;26.70;72.70
53695;DHT22;39588;51.124;7.190;2023-06-10T07:43:26;26.90;74.60
53695;DHT22;39588;51.124;7.190;2023-06-10T07:45:52;27.10;74.40
53695;DHT22;39588;51.124;7.190;2023-06-10T07:48:18;26.60;68.80
53695;DHT22;39588;51.124;7.190;2023-06-10T07:50:43;26.50;69.60
53695;DHT22;39588;51.124;7.190;2023-06-10T07:53:10;26.30;69.20
53695;DHT22;39588;51.124;7.190;2023-06-10T07:55:35;26.50;71.90
53695;DHT22;39588;51.124;7.190;2023-06-10T07:58:01;26.80;70.40
53695;DHT22;39588;51.124;7.190;2023-06-10T08:00:27;27.10;73.50
53695;DHT22;39588;51.124;7.190;2023-06-10T08:02:52;27.20;72.50
53695;DHT22;39588;51.124;7.190;2023-06-10T08:05:18;27.40;71.30
53695;DHT22;39588;51.124;7.190;2023-06-10T08:07:44;27.50;69.50
53695;DHT22;39588;51.124;7.190;2023-06-10T08:10:10;27.50;69.50
53695;DHT22;39588;51.124;7.190;2023-06-10T08:12:36;27.60;69.60
53695;DHT22;39588;51.124;7.190;2023-06-10T08:15:02;27.80;67.80
53695;DHT22;39588;51.124;7.190;2023-06-10T08:17:31;27.80;68.10
53695;DHT22;39588;51.124;7.190;2023-06-10T08:19:57;28.00;68.60
53695;DHT22;39588;51.124;7.190;2023-06-10T08:22:22;28.00;68.40
53695;DHT22;39588;51.124;7.190;2023-06-10T08:24:48;28.10;64.50
53695;DHT22;39588;51.124;7.190;2023-06-10T08:27:14;28.10;65.70
53695;DHT22;39588;51.124;7.190;2023-06-10T08:29:40;28.00;67.70
53695;DHT22;39588;51.124;7.190;2023-06-10T08:32:06;28.40;68.00
53695;DHT22;39588;51.124;7.190;2023-06-10T08:34:35;28.60;64.30
53695;DHT22;39588;51.124;7.190;2023-06-10T08:37:01;28.70;64.60
53695;DHT22;39588;51.124;7.190;2023-06-10T08:39:27;28.70;62.10
53695;DHT22;39588;51.124;7.190;2023-06-10T08:42:05;28.80;62.30
53695;DHT22;39588;51.124;7.190;2023-06-10T08:44:35;28.70;61.50
53695;DHT22;39588;51.124;7.190;2023-06-10T08:47:08;28.70;60.60
53695;DHT22;39588;51.124;7.190;2023-06-10T08:49:40;28.80;62.20
53695;DHT22;39588;51.124;7.190;2023-06-10T08:52:07;28.80;59.80
53695;DHT22;39588;51.124;7.190;2023-06-10T08:54:34;28.30;59.50
53695;DHT22;39588;51.124;7.190;2023-06-10T08:57:05;28.70;59.70
53695;DHT22;39588;51.124;7.190;2023-06-10T08:59:34;28.70;60.30
53695;DHT22;39588;51.124;7.190;2023-06-10T09:02:00;28.90;58.10
53695;DHT22;39588;51.124;7.190;2023-06-10T09:04:26;28.90;57.50
53695;DHT22;39588;51.124;7.190;2023-06-10T09:06:53;28.70;55.50
53695;DHT22;39588;51.124;7.190;2023-06-10T09:09:19;28.70;57.40
53695;DHT22;39588;51.124;7.190;2023-06-10T09:11:45;28.70;55.80
53695;DHT22;39588;51.124;7.190;2023-06-10T09:16:38;28.90;57.70
53695;DHT22;39588;51.124;7.190;2023-06-10T09:19:05;29.00;55.10
53695;DHT22;39588;51.124;7.190;2023-06-10T09:26:29;29.30;53.60
53695;DHT22;39588;51.124;7.190;2023-06-10T09:29:05;29.10;54.00
53695;DHT22;39588;51.124;7.190;2023-06-10T09:31:34;29.00;51.50
53695;DHT22;39588;51.124;7.190;2023-06-10T09:36:36;29.00;52.90
53695;DHT22;39588;51.124;7.190;2023-06-10T09:39:03;29.10;51.60
53695;DHT22;39588;51.124;7.190;2023-06-10T09:41:33;29.10;55.40
53695;DHT22;39588;51.124;7.190;2023-06-10T09:44:00;29.70;53.50
53695;DHT22;39588;51.124;7.190;2023-06-10T09:46:30;30.00;53.40
53695;DHT22;39588;51.124;7.190;2023-06-10T09:48:57;30.20;50.80
53695;DHT22;39588;51.124;7.190;2023-06-10T09:51:23;30.60;52.20
53695;DHT22;39588;51.124;7.190;2023-06-10T09:58:45;30.90;50.50
53695;DHT22;39588;51.124;7.190;2023-06-10T10:01:13;30.70;50.30
53695;DHT22;39588;51.124;7.190;2023-06-10T10:03:46;30.70;50.10
53695;DHT22;39588;51.124;7.190;2023-06-10T10:06:13;30.70;52.70
53695;DHT22;39588;51.124;7.190;2023-06-10T10:08:39;30.40;53.30
53695;DHT22;39588;51.124;7.190;2023-06-10T10:13:33;30.80;49.80
53695;DHT22;39588;51.124;7.190;2023-06-10T10:16:04;30.50;48.20
53695;DHT22;39588;51.124;7.190;2023-06-10T10:21:01;29.50;50.30
53695;DHT22;39588;51.124;7.190;2023-06-10T10:26:21;29.90;49.30
53695;DHT22;39588;51.124;7.190;2023-06-10T10:28:58;29.80;50.60
53695;DHT22;39588;51.124;7.190;2023-06-10T10:31:27;30.10;48.50
53695;DHT22;39588;51.124;7.190;2023-06-10T10:33:58;30.20;47.80
53695;DHT22;39588;51.124;7.190;2023-06-10T10:38:51;30.90;50.40
53695;DHT22;39588;51.124;7.190;2023-06-10T10:41:18;30.90;48.30
53695;DHT22;39588;51.124;7.190;2023-06-10T10:43:45;30.70;50.30
53695;DHT22;39588;51.124;7.190;2023-06-10T10:46:13;31.00;48.70
53695;DHT22;39588;51.124;7.190;2023-06-10T10:51:10;31.10;49.90
53695;DHT22;39588;51.124;7.190;2023-06-10T10:53:39;31.20;50.60
53695;DHT22;39588;51.124;7.190;2023-06-10T10:58:31;31.30;51.20
53695;DHT22;39588;51.124;7.190;2023-06-10T11:03:28;31.20;53.10
53695;DHT22;39588;51.124;7.190;2023-06-10T11:05:57;31.50;51.70
53695;DHT22;39588;51.124;7.190;2023-06-10T11:10:58;31.20;49.60
53695;DHT22;39588;51.124;7.190;2023-06-10T11:13:26;30.50;50.80
53695;DHT22;39588;51.124;7.190;2023-06-10T11:18:29;28.90;52.10
53695;DHT22;39588;51.124;7.190;2023-06-10T11:20:57;28.60;53.70
53695;DHT22;39588;51.124;7.190;2023-06-10T11:34:02;28.40;54.80
53695;DHT22;39588;51.124;7.190;2023-06-10T11:36:29;28.40;55.10
53695;DHT22;39588;51.124;7.190;2023-06-10T11:39:02;28.40;54.90
53695;DHT22;39588;51.124;7.190;2023-06-10T11:41:29;28.30;55.80
53695;DHT22;39588;51.124;7.190;2023-06-10T11:43:58;28.40;55.30
53695;DHT22;39588;51.124;7.190;2023-06-10T11:48:57;28.50;57.00
53695;DHT22;39588;51.124;7.190;2023-06-10T11:51:27;28.60;58.20
53695;DHT22;39588;51.124;7.190;2023-06-10T11:53:54;28.50;57.20
53695;DHT22;39588;51.124;7.190;2023-06-10T11:56:21;28.30;58.30
53695;DHT22;39588;51.124;7.190;2023-06-10T11:58:53;28.10;58.20
53695;DHT22;39588;51.124;7.190;2023-06-10T12:01:21;28.30;58.50
53695;DHT22;39588;51.124;7.190;2023-06-10T12:03:47;28.60;57.80
53695;DHT22;39588;51.124;7.190;2023-06-10T12:08:43;28.90;55.70
53695;DHT22;39588;51.124;7.190;2023-06-10T12:16:07;29.50;53.70
53695;DHT22;39588;51.124;7.190;2023-06-10T12:20:59;29.20;52.20
53695;DHT22;39588;51.124;7.190;2023-06-10T12:25:53;29.00;52.50
53695;DHT22;39588;51.124;7.190;2023-06-10T12:28:26;29.00;53.20
53695;DHT22;39588;51.124;7.190;2023-06-10T12:31:07;29.10;53.50
53695;DHT22;39588;51.124;7.190;2023-06-10T12:33:33;29.30;53.10
53695;DHT22;39588;51.124;7.190;2023-06-10T12:38:26;29.60;51.20
53695;DHT22;39588;51.124;7.190;2023-06-10T12:41:01;29.80;54.10
53695;DHT22;39588;51.124;7.190;2023-06-10T12:43:31;30.20;51.90
53695;DHT22;39588;51.124;7.190;2023-06-10T12:46:08;30.60;53.30
53695;DHT22;39588;51.124;7.190;2023-06-10T12:48:34;30.70;52.40
53695;DHT22;39588;51.124;7.190;2023-06-10T12:55:52;29.80;49.50
53695;DHT22;39588;51.124;7.190;2023-06-10T12:58:22;29.50;50.30
53695;DHT22;39588;51.124;7.190;2023-06-10T13:03:17;29.30;52.10
53695;DHT22;39588;51.124;7.190;2023-06-10T13:05:43;29.60;50.40
53695;DHT22;39588;51.124;7.190;2023-06-10T13:10:38;29.80;47.70
53695;DHT22;39588;51.124;7.190;2023-06-10T13:13:03;29.90;49.60
53695;DHT22;39588;51.124;7.190;2023-06-10T13:15:35;30.20;48.40
53695;DHT22;39588;51.124;7.190;2023-06-10T13:18:04;30.20;46.40
53695;DHT22;39588;51.124;7.190;2023-06-10T13:20:29;30.30;47.20
53695;DHT22;39588;51.124;7.190;2023-06-10T13:22:56;30.60;46.40
53695;DHT22;39588;51.124;7.190;2023-06-10T13:25:21;30.90;46.80
53695;DHT22;39588;51.124;7.190;2023-06-10T13:27:48;31.10;46.10
53695;DHT22;39588;51.124;7.190;2023-06-10T13:30:14;31.30;47.00
53695;DHT22;39588;51.124;7.190;2023-06-10T13:35:06;31.30;47.60
53695;DHT22;39588;51.124;7.190;2023-06-10T13:37:33;31.10;49.10
53695;DHT22;39588;51.124;7.190;2023-06-10T13:39:59;30.50;50.30
53695;DHT22;39588;51.124;7.190;2023-06-10T13:42:25;29.90;51.80
53695;DHT22;39588;51.124;7.190;2023-06-10T13:44:51;29.30;51.40
53695;DHT22;39588;51.124;7.190;2023-06-10T13:47:17;29.20;51.70
53695;DHT22;39588;51.124;7.190;2023-06-10T13:49:43;29.30;50.70
53695;DHT22;39588;51.124;7.190;2023-06-10T13:54:34;29.60;54.20
53695;DHT22;39588;51.124;7.190;2023-06-10T13:57:03;29.40;55.20
53695;DHT22;39588;51.124;7.190;2023-06-10T13:59:29;29.20;54.90
53695;DHT22;39588;51.124;7.190;2023-06-10T14:06:47;29.20;52.90
53695;DHT22;39588;51.124;7.190;2023-06-10T14:09:13;29.40;51.70
53695;DHT22;39588;51.124;7.190;2023-06-10T14:11:39;29.80;52.50
53695;DHT22;39588;51.124;7.190;2023-06-10T14:16:31;30.40;49.20
53695;DHT22;39588;51.124;7.190;2023-06-10T14:18:56;30.50;47.70
53695;DHT22;39588;51.124;7.190;2023-06-10T14:23:48;30.00;49.10
53695;DHT22;39588;51.124;7.190;2023-06-10T14:26:14;30.30;49.90
53695;DHT22;39588;51.124;7.190;2023-06-10T14:28:40;30.60;48.60
53695;DHT22;39588;51.124;7.190;2023-06-10T14:31:06;30.90;46.10
53695;DHT22;39588;51.124;7.190;2023-06-10T14:33:32;31.10;46.60
53695;DHT22;39588;51.124;7.190;2023-06-10T14:35:58;30.90;45.60
53695;DHT22;39588;51.124;7.190;2023-06-10T14:40:50;30.00;46.60
53695;DHT22;39588;51.124;7.190;2023-06-10T14:43:16;29.60;46.30
53695;DHT22;39588;51.124;7.190;2023-06-10T14:48:08;29.10;47.30
53695;DHT22;39588;51.124;7.190;2023-06-10T14:50:37;29.00;46.70
53695;DHT22;39588;51.124;7.190;2023-06-10T14:53:03;29.00;47.40
53695;DHT22;39588;51.124;7.190;2023-06-10T14:55:29;29.10;46.50
53695;DHT22;39588;51.124;7.190;2023-06-10T14:57:55;29.20;46.00
53695;DHT22;39588;51.124;7.190;2023-06-10T15:00:22;29.30;47.00
53695;DHT22;39588;51.124;7.190;2023-06-10T15:02:49;29.50;48.30
53695;DHT22;39588;51.124;7.190;2023-06-10T15:05:15;29.60;47.60
53695;DHT22;39588;51.124;7.190;2023-06-10T15:07:42;29.60;47.30
53695;DHT22;39588;51.124;7.190;2023-06-10T15:12:35;29.60;46.50
53695;DHT22;39588;51.124;7.190;2023-06-10T15:17:27;30.00;46.60
53695;DHT22;39588;51.124;7.190;2023-06-10T15:22:19;30.30;47.60
53695;DHT22;39588;51.124;7.190;2023-06-10T15:24:45;30.20;47.90
53695;DHT22;39588;51.124;7.190;2023-06-10T15:27:11;30.30;47.00
53695;DHT22;39588;51.124;7.190;2023-06-10T15:32:02;30.10;47.40
53695;DHT22;39588;51.124;7.190;2023-06-10T15:34:28;30.00;48.40
53695;DHT22;39588;51.124;7.190;2023-06-10T15:36:54;29.90;48.00
53695;DHT22;39588;51.124;7.190;2023-06-10T15:51:30;29.30;45.80
53695;DHT22;39588;51.124;7.190;2023-06-10T15:58:48;29.10;47.70
53695;DHT22;39588;51.124;7.190;2023-06-10T16:03:41;29.00;46.30
53695;DHT22;39588;51.124;7.190;2023-06-10T16:06:09;29.00;46.80
53695;DHT22;39588;51.124;7.190;2023-06-10T16:08:35;29.00;47.60
53695;DHT22;39588;51.124;7.190;2023-06-10T16:11:01;29.00;46.90
53695;DHT22;39588;51.124;7.190;2023-06-10T16:15:53;29.00;47.70
53695;DHT22;39588;51.124;7.190;2023-06-10T16:23:10;29.30;47.10
53695;DHT22;39588;51.124;7.190;2023-06-10T16:25:36;29.20;47.00
53695;DHT22;39588;51.124;7.190;2023-06-10T16:28:04;29.30;47.20
53695;DHT22;39588;51.124;7.190;2023-06-10T16:32:56;29.20;47.00
53695;DHT22;39588;51.124;7.190;2023-06-10T16:35:21;29.30;46.60
53695;DHT22;39588;51.124;7.190;2023-06-10T16:37:47;29.40;46.90
53695;DHT22;39588;51.124;7.190;2023-06-10T16:45:06;28.90;46.40
53695;DHT22;39588;51.124;7.190;2023-06-10T17:07:00;28.10;46.70
53695;DHT22;39588;51.124;7.190;2023-06-10T17:09:26;28.10;47.50
53695;DHT22;39588;51.124;7.190;2023-06-10T17:11:51;28.10;48.00
53695;DHT22;39588;51.124;7.190;2023-06-10T17:14:17;28.10;49.00
53695;DHT22;39588;51.124;7.190;2023-06-10T17:16:43;28.00;48.40
53695;DHT22;39588;51.124;7.190;2023-06-10T17:24:02;28.00;49.40
53695;DHT22;39588;51.124;7.190;2023-06-10T17:26:28;27.90;49.10
53695;DHT22;39588;51.124;7.190;2023-06-10T17:28:53;28.00;49.00
53695;DHT22;39588;51.124;7.190;2023-06-10T17:50:49;27.80;48.20
53695;DHT22;39588;51.124;7.190;2023-06-10T17:53:14;27.70;48.90
53695;DHT22;39588;51.124;7.190;2023-06-10T17:55:40;27.60;48.20
53695;DHT22;39588;51.124;7.190;2023-06-10T18:07:50;27.30;49.40
53695;DHT22;39588;51.124;7.190;2023-06-10T18:10:16;27.20;49.20
53695;DHT22;39588;51.124;7.190;2023-06-10T18:12:41;27.10;49.00
53695;DHT22;39588;51.124;7.190;2023-06-10T18:15:07;27.00;49.40
53695;DHT22;39588;51.124;7.190;2023-06-10T18:17:33;26.90;49.50
53695;DHT22;39588;51.124;7.190;2023-06-10T18:27:18;26.70;50.60
53695;DHT22;39588;51.124;7.190;2023-06-10T18:29:44;26.60;50.70
53695;DHT22;39588;51.124;7.190;2023-06-10T18:32:10;26.60;51.10
53695;DHT22;39588;51.124;7.190;2023-06-10T18:34:35;26.60;51.30
53695;DHT22;39588;51.124;7.190;2023-06-10T18:37:06;26.50;51.20
53695;DHT22;39588;51.124;7.190;2023-06-10T18:39:33;26.40;51.50
53695;DHT22;39588;51.124;7.190;2023-06-10T18:44:28;26.30;52.00
53695;DHT22;39588;51.124;7.190;2023-06-10T18:46:54;26.20;52.00
53695;DHT22;39588;51.124;7.190;2023-06-10T18:49:20;26.20;52.70
53695;DHT22;39588;51.124;7.190;2023-06-10T18:51:46;26.10;53.00
53695;DHT22;39588;51.124;7.190;2023-06-10T18:56:38;26.00;52.90
53695;DHT22;39588;51.124;7.190;2023-06-10T19:03:56;25.90;53.50
53695;DHT22;39588;51.124;7.190;2023-06-10T19:06:22;25.80;53.50
53695;DHT22;39588;51.124;7.190;2023-06-10T19:08:47;25.80;53.80
53695;DHT22;39588;51.124;7.190;2023-06-10T19:11:13;25.70;54.00
53695;DHT22;39588;51.124;7.190;2023-06-10T19:13:39;25.60;54.20
53695;DHT22;39588;51.124;7.190;2023-06-10T19:16:05;25.50;54.40
53695;DHT22;39588;51.124;7.190;2023-06-10T19:18:32;25.50;54.60
53695;DHT22;39588;51.124;7.190;2023-06-10T19:20:58;25.40;54.80
53695;DHT22;39588;51.124;7.190;2023-06-10T19:23:23;25.30;54.90
53695;DHT22;39588;51.124;7.190;2023-06-10T19:25:49;25.30;55.40
53695;DHT22;39588;51.124;7.190;2023-06-10T19:28:15;25.10;55.60
53695;DHT22;39588;51.124;7.190;2023-06-10T19:30:41;25.10;55.80
53695;DHT22;39588;51.124;7.190;2023-06-10T19:33:07;25.10;56.20
53695;DHT22;39588;51.124;7.190;2023-06-10T19:35:33;24.90;56.40
53695;DHT22;39588;51.124;7.190;2023-06-10T19:37:59;24.90;56.80
53695;DHT22;39588;51.124;7.190;2023-06-10T19:40:25;24.70;57.00
53695;DHT22;39588;51.124;7.190;2023-06-10T19:42:50;24.60;57.50
53695;DHT22;39588;51.124;7.190;2023-06-10T19:45:16;24.60;57.90
53695;DHT22;39588;51.124;7.190;2023-06-10T19:47:42;24.50;58.30
53695;DHT22;39588;51.124;7.190;2023-06-10T19:50:08;24.40;58.60
53695;DHT22;39588;51.124;7.190;2023-06-10T19:52:34;24.40;59.00
53695;DHT22;39588;51.124;7.190;2023-06-10T19:54:59;24.40;59.40
53695;DHT22;39588;51.124;7.190;2023-06-10T19:57:25;24.30;59.70
53695;DHT22;39588;51.124;7.190;2023-06-10T19:59:51;24.30;60.00
53695;DHT22;39588;51.124;7.190;2023-06-10T20:02:17;24.20;60.10
53695;DHT22;39588;51.124;7.190;2023-06-10T20:04:42;24.10;60.40
53695;DHT22;39588;51.124;7.190;2023-06-10T20:07:08;24.10;60.70
53695;DHT22;39588;51.124;7.190;2023-06-10T20:09:33;24.10;61.00
53695;DHT22;39588;51.124;7.190;2023-06-10T20:12:01;23.90;60.70
53695;DHT22;39588;51.124;7.190;2023-06-10T20:14:26;23.90;61.20
53695;DHT22;39588;51.124;7.190;2023-06-10T20:19:18;23.90;61.20
53695;DHT22;39588;51.124;7.190;2023-06-10T20:21:44;23.90;61.90
53695;DHT22;39588;51.124;7.190;2023-06-10T20:24:09;23.80;61.50
53695;DHT22;39588;51.124;7.190;2023-06-10T20:26:35;23.70;61.80
53695;DHT22;39588;51.124;7.190;2023-06-10T20:29:01;23.70;62.10
53695;DHT22;39588;51.124;7.190;2023-06-10T20:31:28;23.70;61.80
53695;DHT22;39588;51.124;7.190;2023-06-10T20:33:54;23.70;62.30
53695;DHT22;39588;51.124;7.190;2023-06-10T20:36:19;23.50;62.00
53695;DHT22;39588;51.124;7.190;2023-06-10T20:38:46;23.50;62.40
53695;DHT22;39588;51.124;7.190;2023-06-10T20:41:12;23.50;62.50
53695;DHT22;39588;51.124;7.190;2023-06-10T20:43:38;23.40;62.60
53695;DHT22;39588;51.124;7.190;2023-06-10T20:46:04;23.40;62.80